Erie, Kansas
Current Conditions -  °F | °C
As of 5:52 AM on Thursday 29 Jan 2015 (Local Time) from KCNU Reporting Station
Overcast Overcast  
Wind Chill: 34°   Ceiling: 2600
Heat Index: 44°   Visibility: 10mi
Dew Point: 34°   Wind: 28mph
Humidity: 68%   Direction: 340°NNW
Pressure: 30.16"   Gusts: 37mph
Location:  37.57°N, 95.24°W
Report Text: KCNU 291152Z AUTO 34024G32KT 10SM OVC026 07/01 A3016 RMK AO2 PK WND 34032/1152 SLP212 T00670011 10150 20067 53042
Loading
Personal Weather Stations






























Interactive Weather Map New forecast layout! Learn more

10-Day Weather Forecast

Advertisements
Track Severe Weather on mobile